createdAt,value
2022-07-25T00:00:27.553Z,5.10
2022-07-25T00:02:54.438Z,4.73
2022-07-25T00:05:22.126Z,5.17
2022-07-25T00:07:49.985Z,5.00
2022-07-25T00:10:17.780Z,5.10
2022-07-25T00:12:45.526Z,5.00
2022-07-25T00:15:13.345Z,5.27
2022-07-25T00:17:40.543Z,5.37
2022-07-25T00:20:08.704Z,5.37
2022-07-25T00:22:35.802Z,5.10
2022-07-25T00:25:03.202Z,5.70
2022-07-25T00:27:30.156Z,5.20
2022-07-25T00:29:57.046Z,4.23
2022-07-25T00:32:24.039Z,5.20
2022-07-25T00:34:51.000Z,4.77
2022-07-25T00:37:17.915Z,4.50
2022-07-25T00:39:44.904Z,4.83
2022-07-25T00:42:11.820Z,5.13
2022-07-25T00:44:38.944Z,5.33
2022-07-25T00:47:05.978Z,5.23
2022-07-25T00:49:33.055Z,5.30
2022-07-25T00:52:03.872Z,4.57
2022-07-25T00:54:31.102Z,5.00
2022-07-25T00:56:58.188Z,5.27
2022-07-25T00:59:25.159Z,4.77
2022-07-25T01:01:52.410Z,5.50
2022-07-25T01:04:19.383Z,5.90
2022-07-25T01:06:46.885Z,5.20
2022-07-25T01:09:13.966Z,4.80
2022-07-25T01:11:40.986Z,4.73
2022-07-25T01:14:08.315Z,5.73
2022-07-25T01:16:35.539Z,5.70
2022-07-25T01:19:02.423Z,5.10
2022-07-25T01:21:29.842Z,5.27
2022-07-25T01:23:56.755Z,4.87
2022-07-25T01:26:23.729Z,5.67
2022-07-25T01:28:50.791Z,5.50
2022-07-25T01:31:17.952Z,4.70
2022-07-25T01:33:44.891Z,5.00
2022-07-25T01:36:12.187Z,5.17
2022-07-25T01:38:39.303Z,4.90
2022-07-25T01:41:06.794Z,4.90
2022-07-25T01:43:33.828Z,5.93
2022-07-25T01:46:00.779Z,5.43
2022-07-25T01:48:27.806Z,5.20
2022-07-25T01:50:54.785Z,4.53
2022-07-25T01:53:21.878Z,4.80
2022-07-25T01:55:48.849Z,5.13
2022-07-25T01:58:15.722Z,4.90
2022-07-25T02:00:42.694Z,5.63
2022-07-25T02:03:28.086Z,6.60
2022-07-25T02:05:56.210Z,5.47
2022-07-25T02:08:23.293Z,6.67
2022-07-25T02:10:50.264Z,5.33
2022-07-25T02:13:18.006Z,6.00
2022-07-25T02:15:45.023Z,5.83
2022-07-25T02:18:12.209Z,5.33
2022-07-25T02:20:39.281Z,5.80
2022-07-25T02:23:06.247Z,4.83
2022-07-25T02:25:33.982Z,5.27
2022-07-25T02:28:01.155Z,4.47
2022-07-25T02:30:28.476Z,4.83
2022-07-25T02:32:55.431Z,5.80
2022-07-25T02:35:22.450Z,5.27
2022-07-25T02:37:49.367Z,5.33
2022-07-25T02:40:16.292Z,5.40
2022-07-25T02:42:43.181Z,6.00
2022-07-25T02:45:10.605Z,6.00
2022-07-25T02:47:37.937Z,5.83
2022-07-25T02:50:05.630Z,4.97
2022-07-25T02:52:32.850Z,6.17
2022-07-25T02:55:01.190Z,6.17
2022-07-25T02:57:29.104Z,5.30
2022-07-25T02:59:55.955Z,6.13
2022-07-25T03:02:22.895Z,6.00
2022-07-25T03:04:49.855Z,6.60
2022-07-25T03:07:16.827Z,5.50
2022-07-25T03:09:43.826Z,6.00
2022-07-25T03:12:10.795Z,6.23
2022-07-25T03:14:37.738Z,6.23
2022-07-25T03:17:04.688Z,5.83
2022-07-25T03:19:31.577Z,6.17
2022-07-25T03:21:58.610Z,6.70
2022-07-25T03:24:25.470Z,6.40
2022-07-25T03:26:52.409Z,6.77
2022-07-25T03:29:19.305Z,6.90
2022-07-25T03:31:46.275Z,6.67
2022-07-25T03:34:13.243Z,6.30
2022-07-25T03:36:40.295Z,7.10
2022-07-25T03:39:07.215Z,6.77
2022-07-25T03:41:34.163Z,6.10
2022-07-25T03:44:01.088Z,6.40
2022-07-25T03:46:28.160Z,5.80
2022-07-25T03:48:55.874Z,6.03
2022-07-25T03:51:22.844Z,6.23
2022-07-25T03:54:09.260Z,6.83
2022-07-25T03:56:43.563Z,6.00
2022-07-25T03:59:14.827Z,6.70
2022-07-25T04:01:43.624Z,6.83
2022-07-25T04:04:11.358Z,6.87
2022-07-25T04:06:39.100Z,6.80
2022-07-25T04:09:07.793Z,6.97
2022-07-25T04:11:35.843Z,6.63
2022-07-25T04:14:03.230Z,7.50
2022-07-25T04:16:30.530Z,7.93
2022-07-25T04:18:57.696Z,8.27
2022-07-25T04:21:25.503Z,7.10
2022-07-25T04:23:53.441Z,7.20
2022-07-25T04:26:20.719Z,6.77
2022-07-25T04:28:47.700Z,7.17
2022-07-25T04:31:14.754Z,6.80
2022-07-25T04:33:42.449Z,6.40
2022-07-25T04:36:09.938Z,6.90
2022-07-25T04:38:36.853Z,7.30
2022-07-25T04:41:05.045Z,7.30
2022-07-25T04:43:32.122Z,6.90
2022-07-25T04:45:59.700Z,7.23
2022-07-25T04:48:27.104Z,7.80
2022-07-25T04:50:54.277Z,7.03
2022-07-25T04:53:21.327Z,6.90
2022-07-25T04:55:48.450Z,6.63
2022-07-25T04:58:15.685Z,7.60
2022-07-25T05:00:42.868Z,6.50
2022-07-25T05:03:10.190Z,6.93
2022-07-25T05:05:37.758Z,7.07
2022-07-25T05:08:05.062Z,7.87
2022-07-25T05:10:32.102Z,7.10
2022-07-25T05:13:00.006Z,6.80
2022-07-25T05:15:27.052Z,6.87
2022-07-25T05:17:53.987Z,7.20
2022-07-25T05:20:20.926Z,7.00
2022-07-25T05:22:47.879Z,8.20
2022-07-25T05:25:14.838Z,7.37
2022-07-25T05:27:42.105Z,7.93
2022-07-25T05:30:12.408Z,6.90
2022-07-25T05:32:40.697Z,8.07
2022-07-25T05:35:09.394Z,7.57
2022-07-25T05:37:37.788Z,6.60
2022-07-25T05:40:07.315Z,7.23
2022-07-25T05:42:34.698Z,7.63
2022-07-25T05:45:02.152Z,6.77
2022-07-25T05:47:29.150Z,8.20
2022-07-25T05:49:56.218Z,7.40
2022-07-25T05:52:23.207Z,6.97
2022-07-25T05:54:50.529Z,7.00
2022-07-25T05:57:17.671Z,7.33
2022-07-25T05:59:44.641Z,7.63
2022-07-25T06:02:11.794Z,7.40
2022-07-25T06:04:38.837Z,7.33
2022-07-25T06:07:05.818Z,7.17
2022-07-25T06:09:32.937Z,6.47
2022-07-25T06:12:01.262Z,8.03
2022-07-25T06:14:28.892Z,7.80
2022-07-25T06:16:56.937Z,7.77
2022-07-25T06:19:23.978Z,6.87
2022-07-25T06:21:50.916Z,7.33
2022-07-25T06:24:17.888Z,7.93
2022-07-25T06:26:44.893Z,7.17
2022-07-25T06:29:12.263Z,7.33
2022-07-25T06:31:39.349Z,7.57
2022-07-25T06:34:06.912Z,8.20
2022-07-25T06:36:34.514Z,7.97
2022-07-25T06:39:01.910Z,8.07
2022-07-25T06:41:28.807Z,6.57
2022-07-25T06:43:55.868Z,8.33
2022-07-25T06:46:22.899Z,7.90
2022-07-25T06:48:50.040Z,7.50
2022-07-25T06:51:17.098Z,7.90
2022-07-25T06:53:43.991Z,7.80
2022-07-25T06:56:15.744Z,7.27
2022-07-25T06:58:44.936Z,8.27
2022-07-25T07:01:12.144Z,7.40
2022-07-25T07:03:40.233Z,8.20
2022-07-25T07:06:09.549Z,7.50
2022-07-25T07:08:37.537Z,7.90
2022-07-25T07:11:08.870Z,7.80
2022-07-25T07:13:35.900Z,8.50
2022-07-25T07:16:03.604Z,8.40
2022-07-25T07:18:30.567Z,8.07
2022-07-25T07:20:57.728Z,7.73
2022-07-25T07:23:24.899Z,8.20
2022-07-25T07:25:51.970Z,8.00
2022-07-25T07:28:18.961Z,8.10
2022-07-25T07:33:33.527Z,7.90
2022-07-25T07:36:01.902Z,8.00
2022-07-25T07:38:29.053Z,8.60
2022-07-25T07:40:55.991Z,8.10
2022-07-25T07:43:27.640Z,8.67
2022-07-25T07:45:56.886Z,7.53
2022-07-25T07:48:24.086Z,7.17
2022-07-25T07:50:50.992Z,8.20
2022-07-25T07:53:18.019Z,8.00
2022-07-25T07:55:55.289Z,7.77
2022-07-25T07:58:22.318Z,7.60
2022-07-25T08:00:51.916Z,7.57
2022-07-25T08:03:20.972Z,8.10
2022-07-25T08:05:49.810Z,7.83
2022-07-25T08:08:17.226Z,8.13
2022-07-25T08:10:48.103Z,7.90
2022-07-25T08:13:22.562Z,7.70
2022-07-25T08:15:59.579Z,8.47
2022-07-25T08:18:32.593Z,8.57
2022-07-25T08:21:06.106Z,8.70
2022-07-25T08:23:39.086Z,7.87
2022-07-25T08:26:07.502Z,8.00
2022-07-25T08:28:34.408Z,7.60
2022-07-25T08:31:01.645Z,8.50
2022-07-25T08:33:28.735Z,7.87
2022-07-25T08:35:58.554Z,7.57
2022-07-25T08:38:28.389Z,9.00
2022-07-25T08:40:57.066Z,7.23
2022-07-25T08:43:24.502Z,7.47
2022-07-25T08:45:55.756Z,7.90
2022-07-25T08:48:26.171Z,8.00
2022-07-25T08:50:54.601Z,7.80
2022-07-25T08:53:37.435Z,7.23
2022-07-25T08:56:13.375Z,7.70
2022-07-25T08:58:44.029Z,7.60
2022-07-25T09:01:14.985Z,7.00
2022-07-25T09:03:43.928Z,7.00
2022-07-25T09:06:29.198Z,7.33
2022-07-25T09:08:59.622Z,6.77
2022-07-25T09:11:36.993Z,7.00
2022-07-25T09:14:08.577Z,6.87
2022-07-25T09:16:43.219Z,7.00
2022-07-25T09:19:22.767Z,7.60
2022-07-25T09:22:10.057Z,6.70
2022-07-25T09:24:44.954Z,6.63
2022-07-25T09:27:13.000Z,5.80
2022-07-25T09:29:45.007Z,7.17
2022-07-25T09:32:22.075Z,7.00
2022-07-25T09:34:50.895Z,6.27
2022-07-25T09:37:26.179Z,7.17
2022-07-25T09:39:53.308Z,6.30
2022-07-25T09:42:28.059Z,6.53
2022-07-25T09:45:14.260Z,6.57
2022-07-25T09:48:00.478Z,6.30
2022-07-25T09:50:30.342Z,6.13
2022-07-25T09:53:02.314Z,6.03
2022-07-25T09:55:30.540Z,5.95
2022-07-25T09:57:57.702Z,6.57
2022-07-25T10:00:27.752Z,6.20
2022-07-25T10:03:29.697Z,6.70
2022-07-25T10:06:21.341Z,6.07
2022-07-25T10:08:49.848Z,6.60
2022-07-25T10:11:35.031Z,6.73
2022-07-25T10:14:12.779Z,6.60
2022-07-25T10:16:48.521Z,7.80
2022-07-25T10:19:15.497Z,7.40
2022-07-25T10:21:42.403Z,7.20
2022-07-25T10:24:11.013Z,7.60
2022-07-25T10:26:40.575Z,6.47
2022-07-25T10:29:11.847Z,6.10
2022-07-25T10:31:51.258Z,7.10
2022-07-25T10:34:31.015Z,7.50
2022-07-25T10:37:15.202Z,6.97
2022-07-25T10:39:45.398Z,6.60
2022-07-25T10:42:18.266Z,6.70
2022-07-25T10:44:50.452Z,6.87
2022-07-25T10:47:18.189Z,7.37
2022-07-25T10:50:25.212Z,7.10
2022-07-25T10:52:43.009Z,7.67
2022-07-25T10:55:10.446Z,5.83
2022-07-25T10:57:54.998Z,7.03
2022-07-25T11:00:27.566Z,6.47
2022-07-25T11:02:57.791Z,6.07
2022-07-25T11:05:24.987Z,5.87
2022-07-25T11:08:19.403Z,7.93
2022-07-25T11:10:40.794Z,7.87
2022-07-25T11:13:14.754Z,7.03
2022-07-25T11:15:42.997Z,6.73
2022-07-25T11:18:10.038Z,7.10
2022-07-25T11:20:37.218Z,6.00
2022-07-25T11:23:04.204Z,7.20
2022-07-25T11:25:31.187Z,8.10
2022-07-25T11:28:00.845Z,6.37
2022-07-25T11:30:29.613Z,6.33
2022-07-25T11:33:01.385Z,7.43
2022-07-25T11:35:31.595Z,7.30
2022-07-25T11:38:02.308Z,7.10
2022-07-25T11:40:31.462Z,7.90
2022-07-25T11:42:59.691Z,8.03
2022-07-25T11:45:34.008Z,7.70
2022-07-25T11:48:08.035Z,9.00
2022-07-25T11:50:42.742Z,7.80
2022-07-25T11:53:14.423Z,8.20
2022-07-25T11:55:43.107Z,7.40
2022-07-25T11:58:12.871Z,7.57
2022-07-25T12:00:46.403Z,7.87
2022-07-25T12:03:20.944Z,7.40
2022-07-25T12:05:49.034Z,7.10
2022-07-25T12:08:20.147Z,7.50
2022-07-25T12:10:49.137Z,8.20
2022-07-25T12:13:27.905Z,6.80
2022-07-25T12:16:00.104Z,7.70
2022-07-25T12:18:27.684Z,6.73
2022-07-25T12:20:54.692Z,3.93
2022-07-25T12:23:24.598Z,4.20
2022-07-25T12:25:51.603Z,5.57
2022-07-25T12:28:18.601Z,4.70
2022-07-25T12:30:47.008Z,4.97
2022-07-25T12:33:14.827Z,5.17
2022-07-25T12:35:43.070Z,4.40
2022-07-25T12:38:14.233Z,5.50
2022-07-25T12:40:41.168Z,5.20
2022-07-25T12:43:08.069Z,5.30
2022-07-25T12:45:35.377Z,5.10
2022-07-25T12:48:03.198Z,6.60
2022-07-25T12:50:30.245Z,8.50
2022-07-25T12:52:57.135Z,4.60
2022-07-25T12:55:24.002Z,5.37
2022-07-25T12:57:51.006Z,5.13
2022-07-25T13:00:21.181Z,5.43
2022-07-25T13:02:51.897Z,5.23
2022-07-25T13:05:19.941Z,5.57
2022-07-25T13:07:48.875Z,5.53
2022-07-25T13:10:16.887Z,4.60
2022-07-25T13:12:43.989Z,5.50
2022-07-25T13:15:11.151Z,5.43
2022-07-25T13:17:38.326Z,5.20
2022-07-25T13:20:06.142Z,5.23
2022-07-25T13:22:33.252Z,5.77
2022-07-25T13:25:00.103Z,4.70
2022-07-25T13:27:27.025Z,6.03
2022-07-25T13:29:54.709Z,5.60
2022-07-25T13:32:22.637Z,5.70
2022-07-25T13:34:50.012Z,5.60
2022-07-25T13:37:16.999Z,6.03
2022-07-25T13:39:43.930Z,9.03
2022-07-25T13:42:11.150Z,11.97
2022-07-25T13:44:38.073Z,5.87
2022-07-25T13:47:05.420Z,6.53
2022-07-25T13:49:32.970Z,5.97
2022-07-25T13:51:59.993Z,6.50
2022-07-25T13:54:27.076Z,6.03
2022-07-25T13:56:54.015Z,5.97
2022-07-25T13:59:21.855Z,6.07
2022-07-25T14:01:50.234Z,5.93
2022-07-25T14:04:17.337Z,6.53
2022-07-25T14:06:44.414Z,6.20
2022-07-25T14:09:11.613Z,5.77
2022-07-25T14:11:38.615Z,6.77
2022-07-25T14:14:05.532Z,5.70
2022-07-25T14:16:34.009Z,6.17
2022-07-25T14:19:01.990Z,5.80
2022-07-25T14:21:29.234Z,6.20
2022-07-25T14:23:56.166Z,6.13
2022-07-25T14:26:23.127Z,6.53
2022-07-25T14:28:49.988Z,5.80
2022-07-25T14:31:17.358Z,5.93
2022-07-25T14:33:44.270Z,5.90
2022-07-25T14:36:11.336Z,6.00
2022-07-25T14:38:38.499Z,5.43
2022-07-25T14:41:10.689Z,6.30
2022-07-25T14:43:40.808Z,7.23
2022-07-25T14:46:08.934Z,6.10
2022-07-25T14:48:37.850Z,7.00
2022-07-25T14:51:06.051Z,6.33
2022-07-25T14:53:34.542Z,6.17
2022-07-25T14:56:04.712Z,6.57
2022-07-25T14:58:33.434Z,6.93
2022-07-25T15:01:00.572Z,6.27
2022-07-25T15:03:27.622Z,7.00
2022-07-25T15:05:54.610Z,6.90
2022-07-25T15:08:21.537Z,6.53
2022-07-25T15:10:48.645Z,6.80
2022-07-25T15:13:32.027Z,5.53
2022-07-25T15:16:00.359Z,5.77
2022-07-25T15:18:27.644Z,6.10
2022-07-25T15:20:55.293Z,6.90
2022-07-25T15:23:24.655Z,7.40
2022-07-25T15:26:02.205Z,6.77
2022-07-25T15:28:29.840Z,6.93
2022-07-25T15:30:56.725Z,7.30
2022-07-25T15:33:23.587Z,6.30
2022-07-25T15:35:50.728Z,5.57
2022-07-25T15:38:18.224Z,5.67
2022-07-25T15:40:45.779Z,6.47
2022-07-25T15:43:13.567Z,6.20
2022-07-25T15:45:43.769Z,6.60
2022-07-25T15:48:13.535Z,5.10
2022-07-25T15:50:44.857Z,5.77
2022-07-25T15:53:13.059Z,4.70
2022-07-25T15:55:41.171Z,5.50
2022-07-25T15:58:09.593Z,5.43
2022-07-25T16:00:37.372Z,5.67
2022-07-25T16:03:04.924Z,11.07
2022-07-25T16:05:31.900Z,8.07
2022-07-25T16:08:02.874Z,6.33
2022-07-25T16:10:32.549Z,6.07
2022-07-25T16:13:12.143Z,5.67
2022-07-25T16:15:39.760Z,4.90
2022-07-25T16:18:07.109Z,4.30
2022-07-25T16:20:34.185Z,6.07
2022-07-25T16:23:01.589Z,5.13
2022-07-25T16:25:30.005Z,5.80
2022-07-25T16:27:57.781Z,3.77
2022-07-25T16:30:25.806Z,3.53
2022-07-25T16:32:52.845Z,4.70
2022-07-25T16:35:19.979Z,4.80
2022-07-25T16:37:46.946Z,4.97
2022-07-25T16:40:14.413Z,5.40
2022-07-25T16:42:41.705Z,4.50
2022-07-25T16:45:09.474Z,4.80
2022-07-25T16:47:36.550Z,3.80
2022-07-25T16:50:03.765Z,3.90
2022-07-25T16:52:30.619Z,4.83
2022-07-25T16:54:57.474Z,3.53
2022-07-25T16:57:25.174Z,2.80
2022-07-25T16:59:53.406Z,3.37
2022-07-25T17:02:25.031Z,3.80
2022-07-25T17:04:53.326Z,3.37
2022-07-25T17:07:20.276Z,3.43
2022-07-25T17:09:47.513Z,2.70
2022-07-25T17:12:14.478Z,2.77
2022-07-25T17:14:41.357Z,2.50
2022-07-25T17:17:08.568Z,3.90
2022-07-25T17:19:39.696Z,2.87
2022-07-25T17:22:08.069Z,3.07
2022-07-25T17:24:35.623Z,2.90
2022-07-25T17:27:03.198Z,3.27
2022-07-25T17:29:30.239Z,2.50
2022-07-25T17:31:57.355Z,2.30
2022-07-25T17:34:26.613Z,2.10
2022-07-25T17:36:54.499Z,3.90
2022-07-25T17:39:21.488Z,4.37
2022-07-25T17:41:49.177Z,6.10
2022-07-25T17:44:16.433Z,2.40
2022-07-25T17:46:44.242Z,1.57
2022-07-25T17:49:11.332Z,2.60
2022-07-25T17:51:38.309Z,2.43
2022-07-25T17:54:05.871Z,2.00
2022-07-25T17:56:33.470Z,2.30
2022-07-25T17:59:00.434Z,2.00
2022-07-25T18:01:27.388Z,1.87
2022-07-25T18:03:54.432Z,1.73
2022-07-25T18:06:23.895Z,1.70
2022-07-25T18:08:53.253Z,2.37
2022-07-25T18:11:20.102Z,2.10
2022-07-25T18:13:46.997Z,2.40
2022-07-25T18:16:14.106Z,2.30
2022-07-25T18:18:41.129Z,1.60
2022-07-25T18:21:08.090Z,2.00
2022-07-25T18:23:35.025Z,1.90
2022-07-25T18:26:02.001Z,1.80
2022-07-25T18:28:28.939Z,2.10
2022-07-25T18:30:55.922Z,2.07
2022-07-25T18:33:22.891Z,2.10
2022-07-25T18:35:51.287Z,1.80
2022-07-25T18:38:18.585Z,2.17
2022-07-25T18:40:45.601Z,2.17
2022-07-25T18:43:12.851Z,1.87
2022-07-25T18:45:40.067Z,1.00
2022-07-25T18:48:07.361Z,1.80
2022-07-25T18:50:34.293Z,1.70
2022-07-25T18:53:01.366Z,1.40
2022-07-25T18:55:28.487Z,1.37
2022-07-25T18:57:55.419Z,1.60
2022-07-25T19:00:22.517Z,1.43
2022-07-25T19:02:50.506Z,1.10
2022-07-25T19:05:17.660Z,1.57
2022-07-25T19:07:44.605Z,10.50
2022-07-25T19:10:11.717Z,7.33
2022-07-25T19:12:40.980Z,2.00
2022-07-25T19:15:08.401Z,1.37
2022-07-25T19:17:37.059Z,1.30
2022-07-25T19:20:05.091Z,1.27
2022-07-25T19:22:32.043Z,2.00
2022-07-25T19:25:01.053Z,1.33
2022-07-25T19:27:28.843Z,1.30
2022-07-25T19:29:55.818Z,0.90
2022-07-25T19:32:22.807Z,1.10
2022-07-25T19:34:49.831Z,0.83
2022-07-25T19:37:16.821Z,1.33
2022-07-25T19:39:43.701Z,1.00
2022-07-25T19:42:12.158Z,1.40
2022-07-25T19:44:39.480Z,1.70
2022-07-25T19:47:09.895Z,1.00
2022-07-25T19:49:40.072Z,1.30
2022-07-25T19:52:10.816Z,1.03
2022-07-25T19:54:38.248Z,1.00
2022-07-25T19:57:05.603Z,1.27
2022-07-25T19:59:32.742Z,1.20
2022-07-25T20:01:59.768Z,1.10
2022-07-25T20:04:26.829Z,1.13
2022-07-25T20:06:53.746Z,1.40
2022-07-25T20:09:20.734Z,1.23
2022-07-25T20:11:48.008Z,1.40
2022-07-25T20:14:14.921Z,1.20
2022-07-25T20:16:42.164Z,1.13
2022-07-25T20:19:11.808Z,1.50
2022-07-25T20:21:40.195Z,1.40
2022-07-25T20:24:07.481Z,9.63
2022-07-25T20:26:34.563Z,9.30
2022-07-25T20:29:02.159Z,5.93
2022-07-25T20:31:29.119Z,1.70
2022-07-25T20:33:56.199Z,1.20
2022-07-25T20:36:23.141Z,1.20
2022-07-25T20:38:50.201Z,1.20
2022-07-25T20:41:17.111Z,1.27
2022-07-25T20:43:45.057Z,1.70
2022-07-25T20:46:11.986Z,1.57
2022-07-25T20:48:39.222Z,1.43
2022-07-25T20:51:06.390Z,1.40
2022-07-25T20:53:33.359Z,1.30
2022-07-25T20:56:00.315Z,1.23
2022-07-25T20:58:27.219Z,1.53
2022-07-25T21:00:54.492Z,1.50
2022-07-25T21:03:21.438Z,1.30
2022-07-25T21:05:48.415Z,1.63
2022-07-25T21:08:15.482Z,1.20
2022-07-25T21:10:42.895Z,1.40
2022-07-25T21:13:09.834Z,1.40
2022-07-25T21:15:37.474Z,1.10
2022-07-25T21:18:04.580Z,1.20
2022-07-25T21:20:31.514Z,1.30
2022-07-25T21:22:58.456Z,1.30
2022-07-25T21:25:25.439Z,1.27
2022-07-25T21:27:52.322Z,1.60
2022-07-25T21:30:19.460Z,1.47
2022-07-25T21:32:46.434Z,1.20
2022-07-25T21:35:13.397Z,1.37
2022-07-25T21:37:40.335Z,1.50
2022-07-25T21:40:08.450Z,1.63
2022-07-25T21:42:36.350Z,1.30
2022-07-25T21:45:04.326Z,1.80
2022-07-25T21:47:31.256Z,1.70
2022-07-25T21:50:24.144Z,1.80
2022-07-25T21:52:52.905Z,1.90
2022-07-25T21:55:21.029Z,1.53
2022-07-25T21:57:48.883Z,1.53
2022-07-25T22:00:16.400Z,1.83
2022-07-25T22:02:44.796Z,1.60
2022-07-25T22:05:13.824Z,1.50
2022-07-25T22:07:41.770Z,1.57
2022-07-25T22:10:11.101Z,1.67
2022-07-25T22:12:39.387Z,1.43
2022-07-25T22:15:08.930Z,1.67
2022-07-25T22:17:48.419Z,1.63
2022-07-25T22:20:18.729Z,1.77
2022-07-25T22:22:49.782Z,1.63
2022-07-25T22:25:17.244Z,1.47
2022-07-25T22:27:44.710Z,1.60
2022-07-25T22:30:18.505Z,1.50
2022-07-25T22:32:48.097Z,1.40
2022-07-25T22:35:15.987Z,1.50
2022-07-25T22:37:44.224Z,1.30
2022-07-25T22:40:12.835Z,1.90
2022-07-25T22:42:39.901Z,2.07
2022-07-25T22:45:07.945Z,2.10
2022-07-25T22:47:35.000Z,1.43
2022-07-25T22:50:02.964Z,1.30
2022-07-25T22:52:30.216Z,1.73
2022-07-25T22:54:57.119Z,2.20
2022-07-25T22:57:24.069Z,1.30
2022-07-25T22:59:50.996Z,1.30
2022-07-25T23:02:17.988Z,2.00
2022-07-25T23:04:44.925Z,1.20
2022-07-25T23:07:11.913Z,1.70
2022-07-25T23:09:38.846Z,1.50
2022-07-25T23:12:06.100Z,1.20
2022-07-25T23:14:33.175Z,1.27
2022-07-25T23:17:19.842Z,1.43
2022-07-25T23:19:50.034Z,1.17
2022-07-25T23:22:18.905Z,1.67
2022-07-25T23:24:46.262Z,1.73
2022-07-25T23:27:13.767Z,1.80
2022-07-25T23:29:41.148Z,1.70
2022-07-25T23:32:08.490Z,1.30
2022-07-25T23:34:35.994Z,1.70
2022-07-25T23:37:03.987Z,1.70
2022-07-25T23:39:31.787Z,1.50
2022-07-25T23:41:59.563Z,1.57
2022-07-25T23:44:26.774Z,1.60
2022-07-25T23:46:56.971Z,2.80
2022-07-25T23:49:24.434Z,1.73
2022-07-25T23:51:51.701Z,1.63
2022-07-25T23:54:18.609Z,1.70
2022-07-25T23:56:45.643Z,1.80
2022-07-25T23:59:12.534Z,1.57
